SBDN Informações do Aeroporto

Informações da Pista
Pista 12 Comprimento 6923 ft Largura 115 ft
Elevação 0 ft Limite 0 ft Heading 0
Pista 30 Comprimento 6923 ft Largura 115 ft
Elevação 0 ft Limite 0 ft Heading 0
Frequências do Aeroporto
Tipo AFIS Nome PRUDENTE R Frequência 118.45 MHZ
Tipo APP Nome PRUDENTE A Frequência 118.45 MHZ
Tipo TWR Nome PRUDENTE T Frequência 118.45 MHZ
Navaids do Aeroporto
Tipo VOR-DME Nome Prudente Frequência 113500 KHZ
Tipo NDB Nome Prudente Frequência 225 KHZ
Informações meteorológicas do aeroporto e NOTAM
ADDS - METARS form results

(0002 UTC 26 May 2019)
Data provider http://aviationweather.gov/metar/data/
 
Forecast for: SBDN (PRESIDENTE PRUDE, BR)
Text: TAF SBDN 251500Z 2518/2606 11007KT CAVOK TX23/2518Z TN13/2606Z RMK PDJ
Forecast period: 1800 UTC 25 May 2019 to 0600 UTC 26 May 2019
Forecast type: FROM: standard forecast or significant change
Winds: from the ESE (110 degrees) at 8 MPH (7 knots; 3.6 m/s)
Visibility: 6 or more miles 10+ km)
Ceiling: unknown
Clouds: missing
Weather: no significant weather forecast for this period